Time;durP1;ratioP1;P1;durP2;ratioP2;P2;SDS_P1;SDS_P2;PMS_P1;PMS_P2;Temp;Humidity;BMP_temperature;BMP_pressure;BME280_temperature;BME280_humidity;BME280_pressure;Samples;Min_cycle;Max_cycle;Signal;HPM_P1;HPM_P2
2021/03/04 00:02:59;;;;;;;38.77;30.53;;;;;;;5.76;70.31;102127.94;6215785;28;20241;-57
2021/03/04 00:06:19;;;;;;;37.83;29.53;;;;;;;5.97;70.22;102132.94;6215771;28;20240;-55
2021/03/04 00:09:40;;;;;;;36.97;28.87;;;;;;;5.92;70.42;102137.94;6210961;28;20242;-56
2021/03/04 00:13:01;;;;;;;38.90;32.40;;;;;;;5.91;69.65;102131.00;6187745;28;20538;-58
2021/03/04 00:16:21;;;;;;;39.93;32.27;;;;;;;5.36;72.16;102129.22;6194917;28;20229;-55
2021/03/04 00:19:43;;;;;;;41.50;30.97;;;;;;;5.79;70.98;102145.25;6206581;28;20222;-58
2021/03/04 00:23:04;;;;;;;34.53;29.73;;;;;;;5.87;70.46;102141.19;6212268;28;20616;-55
2021/03/04 00:26:24;;;;;;;35.97;30.57;;;;;;;5.91;70.00;102143.03;6185791;28;20835;-55
2021/03/04 00:29:44;;;;;;;39.93;35.57;;;;;;;6.13;68.99;102134.28;6186426;28;20234;-59
2021/03/04 00:33:05;;;;;;;43.43;36.03;;;;;;;5.84;69.90;102136.81;6211548;28;20724;-56
2021/03/04 00:36:26;;;;;;;41.90;35.47;;;;;;;5.89;69.29;102131.78;6222941;28;20232;-56
2021/03/04 00:39:46;;;;;;;39.13;33.57;;;;;;;5.62;70.41;102124.94;6215190;28;20237;-58
2021/03/04 00:43:07;;;;;;;43.60;36.63;;;;;;;5.92;69.28;102125.00;6214193;28;20256;-55
2021/03/04 00:46:28;;;;;;;43.40;34.87;;;;;;;6.05;69.04;102121.13;6216211;28;20232;-58
2021/03/04 00:49:48;;;;;;;43.83;32.77;;;;;;;5.64;70.50;102123.28;6215295;28;20740;-55
2021/03/04 00:53:09;;;;;;;38.03;33.23;;;;;;;5.82;69.17;102127.25;6212406;28;20229;-54
2021/03/04 00:56:30;;;;;;;33.00;29.10;;;;;;;5.56;69.89;102124.69;6184669;28;20252;-56
2021/03/04 00:59:50;;;;;;;36.03;30.87;;;;;;;5.31;70.55;102123.91;6202111;28;20241;-54
2021/03/04 01:03:11;;;;;;;36.67;30.20;;;;;;;5.27;70.08;102116.91;6189475;28;20285;-56
2021/03/04 01:06:31;;;;;;;32.43;28.80;;;;;;;5.21;70.45;102118.38;6210308;28;20226;-57
2021/03/04 01:09:53;;;;;;;34.50;29.00;;;;;;;5.16;70.73;102125.97;6194329;28;20230;-57
2021/03/04 01:13:13;;;;;;;31.43;26.10;;;;;;;4.97;71.13;102131.34;6221497;28;20228;-57
2021/03/04 01:16:34;;;;;;;31.50;26.93;;;;;;;5.01;70.78;102125.47;6208986;28;20229;-58
2021/03/04 01:19:54;;;;;;;31.30;25.70;;;;;;;5.09;70.13;102121.44;6218594;28;20654;-57
2021/03/04 01:23:15;;;;;;;25.77;22.90;;;;;;;5.24;69.80;102109.03;6221306;28;20602;-59
2021/03/04 01:26:36;;;;;;;28.17;21.67;;;;;;;5.07;69.85;102113.63;6214609;28;20237;-58
2021/03/04 01:29:57;;;;;;;20.90;18.67;;;;;;;5.31;68.92;102095.50;6194107;28;20308;-57
2021/03/04 01:33:17;;;;;;;25.43;19.77;;;;;;;5.20;69.59;102096.84;6204027;28;20649;-55
2021/03/04 01:36:37;;;;;;;20.73;17.90;;;;;;;4.98;69.36;102081.44;6212154;28;20253;-57
2021/03/04 01:39:58;;;;;;;19.63;17.43;;;;;;;4.97;69.68;102087.44;6218667;28;20655;-57
2021/03/04 01:43:19;;;;;;;19.23;17.23;;;;;;;4.93;69.38;102084.75;6226657;28;20292;-56
2021/03/04 01:46:40;;;;;;;18.63;16.70;;;;;;;5.10;69.17;102082.75;6215569;28;20237;-57
2021/03/04 01:50:01;;;;;;;17.93;16.00;;;;;;;4.91;70.46;102073.50;6212679;28;20229;-58
2021/03/04 01:53:22;;;;;;;20.30;18.15;;;;;;;5.11;69.42;102068.13;6219904;28;20610;-56
2021/03/04 01:56:42;;;;;;;15.33;13.40;;;;;;;5.24;68.44;102072.00;6210016;28;20229;-58
2021/03/04 02:00:06;;;;;;;14.17;12.70;;;;;;;5.39;68.36;102076.78;6217543;28;20288;-52
2021/03/04 02:03:29;;;;;;;13.50;12.17;;;;;;;5.51;67.73;102074.59;6223298;28;20323;-53
2021/03/04 02:06:59;;;;;;;13.43;12.03;;;;;;;5.37;68.00;102081.00;6212294;28;20229;-57
2021/03/04 02:10:21;;;;;;;12.33;11.00;;;;;;;5.36;67.85;102076.69;6218522;28;20224;-58
2021/03/04 02:13:46;;;;;;;13.30;10.37;;;;;;;5.16;68.51;102069.16;6215749;28;20260;-58
2021/03/04 02:17:11;;;;;;;12.70;10.33;;;;;;;5.22;67.81;102066.78;6216803;28;20728;-56
2021/03/04 02:20:36;;;;;;;11.53;10.13;;;;;;;4.94;69.06;102067.53;6202295;28;20249;-55
2021/03/04 02:24:06;;;;;;;11.67;10.30;;;;;;;5.24;67.56;102065.13;6198109;28;20245;-57
2021/03/04 02:27:28;;;;;;;10.83;9.73;;;;;;;5.45;66.64;102056.31;6197143;28;20690;-55
2021/03/04 02:30:50;;;;;;;10.77;9.63;;;;;;;5.32;66.55;102058.50;6213836;28;20271;-56
2021/03/04 02:34:12;;;;;;;9.80;8.83;;;;;;;5.18;67.29;102054.59;6193400;28;20233;-54
2021/03/04 02:37:36;;;;;;;8.93;7.97;;;;;;;5.39;66.91;102051.84;6199241;28;20263;-55
2021/03/04 02:40:58;;;;;;;9.90;8.90;;;;;;;5.44;66.94;102051.97;6191221;28;20245;-57
2021/03/04 02:44:21;;;;;;;10.13;9.10;;;;;;;5.49;66.11;102042.66;6217109;28;20252;-56
2021/03/04 02:47:42;;;;;;;10.43;9.33;;;;;;;5.31;66.88;102037.78;6203006;28;20233;-56
2021/03/04 02:51:04;;;;;;;10.47;9.47;;;;;;;5.35;66.29;102031.00;6204771;28;20237;-57
2021/03/04 02:54:25;;;;;;;7.80;6.77;;;;;;;5.18;66.84;102015.84;6214783;28;20233;-57
2021/03/04 02:57:48;;;;;;;9.07;8.17;;;;;;;5.02;66.66;102017.06;6218165;28;20225;-57
2021/03/04 03:01:09;;;;;;;10.67;9.67;;;;;;;5.00;68.06;102025.56;6214019;28;20472;-57
2021/03/04 03:04:30;;;;;;;10.23;8.60;;;;;;;5.07;68.29;102024.97;6214804;28;20611;-56
2021/03/04 03:07:52;;;;;;;9.50;8.50;;;;;;;4.85;69.22;102024.25;6217030;28;20245;-56
2021/03/04 03:11:15;;;;;;;10.67;9.57;;;;;;;4.96;68.58;102014.25;6204068;28;20230;-55
2021/03/04 03:14:35;;;;;;;9.67;8.70;;;;;;;5.26;67.82;102009.22;6194021;28;20635;-54
2021/03/04 03:17:56;;;;;;;11.23;9.10;;;;;;;4.82;69.16;101997.44;6192628;28;20233;-55
2021/03/04 03:21:17;;;;;;;9.33;8.43;;;;;;;4.98;67.58;101989.38;6217582;28;20225;-57
2021/03/04 03:24:37;;;;;;;9.03;7.20;;;;;;;4.95;67.81;101989.28;6199246;28;20241;-53
2021/03/04 03:27:58;;;;;;;7.57;6.83;;;;;;;5.44;66.62;101988.25;6205274;28;20551;-57
2021/03/04 03:31:22;;;;;;;8.73;7.73;;;;;;;5.23;67.01;102001.38;6205434;28;20253;-57
2021/03/04 03:34:43;;;;;;;10.10;6.93;;;;;;;5.12;66.68;101993.28;6212632;28;20224;-53
2021/03/04 03:38:06;;;;;;;7.80;6.90;;;;;;;5.03;67.59;101986.97;6210669;28;20229;-55
2021/03/04 03:41:27;;;;;;;8.60;7.80;;;;;;;4.91;68.82;101985.72;6205503;28;20214;-58
2021/03/04 03:44:49;;;;;;;9.60;8.47;;;;;;;4.72;69.35;101973.91;6200310;28;20394;-56
2021/03/04 03:48:12;;;;;;;8.40;7.67;;;;;;;4.76;69.33;101977.47;6202316;28;20226;-57
2021/03/04 03:51:34;;;;;;;9.27;7.37;;;;;;;4.75;69.63;101978.31;6193445;28;20240;-57
2021/03/04 03:54:55;;;;;;;9.17;8.20;;;;;;;4.84;68.49;101983.75;6214489;28;20233;-58
2021/03/04 03:58:17;;;;;;;6.80;6.20;;;;;;;4.88;66.91;101977.00;6216172;28;20605;-56
2021/03/04 04:01:39;;;;;;;13.07;11.63;;;;;;;5.00;65.76;101961.94;6213561;28;20225;-55
2021/03/04 04:05:00;;;;;;;7.27;6.57;;;;;;;5.18;66.26;101965.91;6225232;28;20245;-57
2021/03/04 04:08:23;;;;;;;5.83;5.23;;;;;;;5.31;65.28;101968.94;6210324;28;20602;-55
2021/03/04 04:11:44;;;;;;;6.93;6.27;;;;;;;5.12;65.97;101964.03;6215716;28;20229;-55
2021/03/04 04:15:06;;;;;;;6.77;6.13;;;;;;;5.16;66.14;101963.28;6220872;28;20233;-57
2021/03/04 04:18:27;;;;;;;7.23;6.00;;;;;;;5.07;65.72;101961.28;6214522;28;20225;-55
2021/03/04 04:21:47;;;;;;;6.17;5.23;;;;;;;5.14;65.13;101954.63;6188626;28;20221;-57
2021/03/04 04:25:10;;;;;;;5.70;5.07;;;;;;;4.96;66.12;101956.59;6190890;28;20267;-57
2021/03/04 04:28:30;;;;;;;4.97;4.50;;;;;;;4.86;65.92;101942.50;6200105;28;20264;-58
2021/03/04 04:31:51;;;;;;;6.50;5.73;;;;;;;5.30;65.15;101950.78;6186047;28;20238;-56
2021/03/04 04:35:12;;;;;;;5.57;4.20;;;;;;;5.26;64.52;101942.06;6207941;28;20237;-58
2021/03/04 04:38:33;;;;;;;5.20;4.70;;;;;;;5.35;64.13;101927.66;6204487;28;20595;-57
2021/03/04 04:41:54;;;;;;;4.50;4.00;;;;;;;5.27;63.73;101925.75;6213758;28;20233;-55
2021/03/04 04:45:15;;;;;;;7.33;4.40;;;;;;;5.32;63.00;101924.16;6197854;28;20229;-56
2021/03/04 04:48:35;;;;;;;4.80;4.47;;;;;;;4.57;66.57;101915.75;6210994;28;20241;-58
2021/03/04 04:51:56;;;;;;;8.63;5.27;;;;;;;5.04;64.18;101911.22;6214862;28;20535;-57
2021/03/04 04:55:16;;;;;;;7.00;4.97;;;;;;;5.28;64.21;101904.25;6213726;28;20244;-58
2021/03/04 04:58:37;;;;;;;5.40;5.00;;;;;;;5.15;64.43;101909.88;6201359;28;20229;-57
2021/03/04 05:01:58;;;;;;;6.53;4.70;;;;;;;5.26;63.98;101912.78;6192142;28;20233;-57
2021/03/04 05:05:18;;;;;;;4.97;4.47;;;;;;;5.52;63.50;101909.28;6212038;28;20227;-57
2021/03/04 05:08:38;;;;;;;5.23;4.77;;;;;;;5.40;62.89;101895.97;6213216;28;20237;-57
2021/03/04 05:11:59;;;;;;;8.57;5.63;;;;;;;5.31;63.18;101896.59;6217743;28;20229;-57
2021/03/04 05:15:21;;;;;;;8.67;6.53;;;;;;;5.42;62.95;101899.47;6195094;28;20241;-55
2021/03/04 05:18:41;;;;;;;5.17;4.40;;;;;;;5.47;63.21;101894.47;6213462;28;20610;-57
2021/03/04 05:22:02;;;;;;;5.23;4.80;;;;;;;5.42;62.90;101903.78;6214876;28;20229;-56
2021/03/04 05:25:23;;;;;;;5.33;4.90;;;;;;;5.70;61.85;101896.00;6209326;28;20237;-55
2021/03/04 05:28:43;;;;;;;7.77;4.87;;;;;;;5.41;63.21;101887.41;6198918;28;20549;-57
2021/03/04 05:32:06;;;;;;;4.63;4.33;;;;;;;5.58;62.81;101885.28;6207180;28;20611;-54
2021/03/04 05:35:27;;;;;;;7.87;4.90;;;;;;;5.53;62.48;101884.31;6209749;28;20521;-55
2021/03/04 05:38:47;;;;;;;5.13;4.47;;;;;;;5.54;62.56;101878.28;6192572;28;20269;-58
2021/03/04 05:42:09;;;;;;;6.20;3.90;;;;;;;5.58;62.85;101880.13;6190435;28;20218;-54
2021/03/04 05:45:31;;;;;;;4.73;4.23;;;;;;;5.07;64.00;101880.34;6207403;28;20237;-55
2021/03/04 05:48:52;;;;;;;6.17;4.73;;;;;;;5.18;63.74;101886.72;6217833;28;20229;-55
2021/03/04 05:52:16;;;;;;;4.33;3.93;;;;;;;5.21;64.16;101884.22;6188719;28;20241;-55
2021/03/04 05:55:37;;;;;;;3.90;3.60;;;;;;;5.64;62.47;101875.16;6199046;28;20241;-54
2021/03/04 05:58:59;;;;;;;4.47;4.07;;;;;;;5.29;63.29;101867.28;6215000;28;20236;-53
2021/03/04 06:02:21;;;;;;;6.70;4.60;;;;;;;5.37;63.08;101870.06;6217758;28;20253;-56
2021/03/04 06:05:42;;;;;;;5.03;4.43;;;;;;;5.27;63.57;101858.59;6202025;28;20234;-56
2021/03/04 06:09:03;;;;;;;5.50;4.73;;;;;;;5.35;63.84;101860.50;6211710;28;20228;-57
2021/03/04 06:12:23;;;;;;;5.40;4.90;;;;;;;5.37;63.33;101859.75;6206498;28;20248;-56
2021/03/04 06:15:45;;;;;;;5.00;4.50;;;;;;;5.28;64.21;101859.47;6203257;28;20233;-58
2021/03/04 06:19:06;;;;;;;5.40;4.87;;;;;;;5.75;62.12;101847.00;6226558;28;20241;-59
2021/03/04 06:22:29;;;;;;;5.17;4.40;;;;;;;5.88;62.26;101849.09;6214820;28;20300;-57
2021/03/04 06:25:50;;;;;;;6.07;4.37;;;;;;;5.74;62.17;101855.63;6189506;28;20241;-55
2021/03/04 06:29:12;;;;;;;5.63;4.73;;;;;;;5.62;62.46;101858.75;6198187;28;20229;-56
2021/03/04 06:32:33;;;;;;;5.23;4.73;;;;;;;5.67;62.83;101854.53;6197008;28;20230;-56
2021/03/04 06:35:53;;;;;;;5.23;4.53;;;;;;;5.92;61.84;101844.88;6216057;28;20257;-55
2021/03/04 06:39:14;;;;;;;5.38;4.90;;;;;;;6.01;61.19;101844.25;6204752;28;20748;-56
2021/03/04 06:42:40;;;;;;;5.70;4.70;;;;;;;5.40;62.81;101839.16;6202743;28;20241;-54
2021/03/04 06:46:02;;;;;;;5.77;4.40;;;;;;;5.39;63.20;101832.25;6211106;28;20493;-58
2021/03/04 06:49:23;;;;;;;3.40;3.20;;;;;;;6.57;71.44;101852.59;6205033;28;20340;-58
2021/03/04 06:52:43;;;;;;;5.17;3.70;;;;;;;7.22;67.59;101839.38;6190989;28;20603;-56
2021/03/04 06:56:05;;;;;;;4.83;3.73;;;;;;;7.98;64.81;101846.88;6202207;28;20241;-58
2021/03/04 06:59:26;;;;;;;5.23;3.33;;;;;;;7.55;57.98;101846.06;6216447;28;20237;-57
2021/03/04 07:02:51;;;;;;;3.37;3.00;;;;;;;6.98;57.87;101844.91;6202909;28;20234;-57
2021/03/04 07:06:13;;;;;;;4.77;3.83;;;;;;;6.56;59.42;101847.38;6193453;28;20505;-57
2021/03/04 07:09:35;;;;;;;3.90;3.20;;;;;;;6.44;63.82;101848.81;6209843;28;20225;-57
2021/03/04 07:12:58;;;;;;;3.90;3.20;;;;;;;6.64;60.61;101858.78;6191202;28;20257;-54
2021/03/04 07:16:20;;;;;;;5.23;4.20;;;;;;;6.25;64.25;101856.97;6195447;28;20323;-54
2021/03/04 07:19:46;;;;;;;4.30;3.73;;;;;;;6.50;59.83;101853.28;6203674;28;20236;-55
2021/03/04 07:23:07;;;;;;;3.80;3.30;;;;;;;5.85;61.40;101838.66;6214451;28;20312;-57
2021/03/04 07:26:28;;;;;;;7.17;3.60;;;;;;;6.10;61.40;101845.38;6198803;28;20267;-58
2021/03/04 07:29:51;;;;;;;3.83;3.37;;;;;;;6.24;60.49;101843.16;6182246;28;20734;-59
2021/03/04 07:33:12;;;;;;;7.40;3.90;;;;;;;5.87;61.32;101841.28;6182787;28;20230;-59
2021/03/04 07:36:32;;;;;;;5.50;3.47;;;;;;;5.76;61.90;101842.69;6190079;28;20544;-57
2021/03/04 07:39:58;;;;;;;6.20;3.33;;;;;;;5.83;61.75;101849.81;6194813;28;20226;-57
2021/03/04 07:43:19;;;;;;;4.57;3.47;;;;;;;5.86;61.95;101844.72;6188228;28;20241;-58
2021/03/04 07:46:50;;;;;;;5.40;3.30;;;;;;;6.00;61.34;101839.94;6187195;28;20233;-58
2021/03/04 07:50:17;;;;;;;8.37;3.90;;;;;;;6.21;60.69;101837.03;6208627;28;20229;-58
2021/03/04 07:53:42;;;;;;;6.63;2.83;;;;;;;6.13;60.91;101849.78;6193991;28;20233;-53
2021/03/04 07:57:07;;;;;;;5.07;3.50;;;;;;;6.10;61.20;101850.56;6195826;28;20245;-54
2021/03/04 08:00:34;;;;;;;8.20;3.70;;;;;;;6.14;61.17;101848.06;6189634;28;20230;-58
2021/03/04 08:03:55;;;;;;;7.90;3.77;;;;;;;5.89;62.07;101844.78;6202919;28;20265;-58
2021/03/04 08:07:24;;;;;;;6.33;3.80;;;;;;;6.11;61.53;101846.28;6214498;28;20236;-59
2021/03/04 08:10:49;;;;;;;7.60;3.50;;;;;;;5.71;62.38;101840.88;6215061;28;20229;-59
2021/03/04 08:14:16;;;;;;;5.47;3.43;;;;;;;5.89;62.30;101831.84;6206065;28;20225;-55
2021/03/04 08:17:37;;;;;;;3.97;3.27;;;;;;;5.57;63.36;101824.13;6209228;28;20236;-56
2021/03/04 08:21:04;;;;;;;7.20;3.80;;;;;;;5.99;61.49;101831.31;6204699;28;20567;-58
2021/03/04 08:24:26;;;;;;;5.83;3.33;;;;;;;6.02;61.70;101841.72;6202694;28;20627;-57
2021/03/04 08:27:47;;;;;;;5.10;3.80;;;;;;;6.05;61.68;101836.66;6191411;28;20228;-56
2021/03/04 08:31:08;;;;;;;6.13;3.83;;;;;;;5.75;62.37;101825.47;6196087;28;20230;-59
2021/03/04 08:34:36;;;;;;;6.13;3.57;;;;;;;6.26;61.29;101828.56;6217853;28;20234;-56
2021/03/04 08:37:59;;;;;;;6.83;3.70;;;;;;;6.10;61.38;101816.94;6189097;28;20237;-51
2021/03/04 08:41:21;;;;;;;3.50;3.20;;;;;;;5.93;62.13;101810.41;6196326;28;20226;-57
2021/03/04 08:44:50;;;;;;;4.33;3.23;;;;;;;6.39;60.62;101803.84;6201472;28;20240;-53
2021/03/04 08:48:13;;;;;;;7.30;3.57;;;;;;;6.64;59.97;101805.28;6208928;28;20252;-52
2021/03/04 08:51:35;;;;;;;5.27;3.30;;;;;;;6.54;60.20;101810.22;6212099;28;20229;-55
2021/03/04 08:55:00;;;;;;;6.10;4.00;;;;;;;6.78;59.79;101787.47;6181913;28;20230;-53
2021/03/04 08:58:21;;;;;;;14.57;4.23;;;;;;;6.09;61.71;101802.25;6207570;28;20220;-55
2021/03/04 09:01:42;;;;;;;4.97;3.37;;;;;;;6.33;61.22;101806.28;6211275;28;20264;-57
2021/03/04 09:05:04;;;;;;;5.53;3.50;;;;;;;5.77;62.91;101798.81;6208066;28;20225;-56
2021/03/04 09:08:31;;;;;;;6.30;3.13;;;;;;;6.31;61.50;101802.78;6212923;28;20229;-55
2021/03/04 09:11:53;;;;;;;8.57;3.93;;;;;;;6.45;61.23;101795.34;6201672;28;20237;-58
2021/03/04 09:15:18;;;;;;;4.90;3.20;;;;;;;6.75;60.01;101792.59;6221303;28;20225;-58
2021/03/04 09:18:42;;;;;;;9.27;3.83;;;;;;;6.67;60.44;101796.75;6224615;28;20487;-57
2021/03/04 09:22:05;;;;;;;7.60;4.03;;;;;;;6.22;62.23;101798.28;6211426;28;20594;-58
2021/03/04 09:25:26;;;;;;;7.10;3.67;;;;;;;6.38;61.78;101789.16;6212804;28;20248;-57
2021/03/04 09:28:48;;;;;;;10.10;3.93;;;;;;;6.69;60.73;101774.34;6214665;28;20256;-56
2021/03/04 09:32:09;;;;;;;8.77;3.60;;;;;;;6.80;60.68;101775.44;6214044;28;20225;-55
2021/03/04 09:35:30;;;;;;;8.97;3.73;;;;;;;6.89;60.28;101782.53;6216455;28;20226;-57
2021/03/04 09:38:52;;;;;;;11.63;4.00;;;;;;;6.59;61.08;101773.28;6214169;28;20742;-54
2021/03/04 09:42:15;;;;;;;9.57;4.60;;;;;;;6.54;61.44;101769.69;6190657;28;20328;-55
2021/03/04 09:45:44;;;;;;;10.10;4.43;;;;;;;6.72;61.11;101764.03;6202213;28;20221;-56
2021/03/04 09:49:07;;;;;;;6.20;4.70;;;;;;;7.21;59.66;101769.38;6203494;28;20264;-55
2021/03/04 09:52:30;;;;;;;6.77;4.37;;;;;;;6.74;60.99;101772.72;6199399;28;20222;-56
2021/03/04 09:55:51;;;;;;;4.47;3.83;;;;;;;6.39;61.87;101777.97;6202289;28;20237;-57
2021/03/04 09:59:17;;;;;;;12.10;5.23;;;;;;;6.57;64.34;101774.94;6208158;28;20233;-57
2021/03/04 10:02:39;;;;;;;6.80;4.57;;;;;;;6.98;61.64;101771.50;6205628;28;20240;-55
2021/03/04 10:06:00;;;;;;;11.50;3.37;;;;;;;7.75;61.57;101775.56;6210918;28;20739;-52
2021/03/04 10:09:25;;;;;;;7.57;3.50;;;;;;;7.42;61.06;101768.91;6186448;28;20240;-59
2021/03/04 10:12:53;;;;;;;6.97;4.10;;;;;;;7.63;58.63;101768.44;6205869;28;20233;-55
2021/03/04 10:16:15;;;;;;;6.70;3.60;;;;;;;7.73;58.64;101759.13;6216382;28;20678;-57
2021/03/04 10:19:36;;;;;;;14.77;4.03;;;;;;;7.62;58.59;101754.63;6215113;28;20236;-58
2021/03/04 10:22:56;;;;;;;7.60;3.47;;;;;;;7.43;58.98;101755.13;6214017;28;20241;-56
2021/03/04 10:26:17;;;;;;;11.07;3.80;;;;;;;7.28;59.41;101755.69;6209340;28;20297;-55
2021/03/04 10:29:38;;;;;;;8.10;4.57;;;;;;;7.67;57.63;101760.75;6206827;28;20256;-58
2021/03/04 10:33:00;;;;;;;9.00;3.47;;;;;;;7.62;57.46;101756.34;6213496;28;20622;-56
2021/03/04 10:36:21;;;;;;;4.43;3.27;;;;;;;8.09;56.50;101769.25;6188092;28;20744;-57
2021/03/04 10:39:42;;;;;;;15.10;4.97;;;;;;;7.99;56.26;101776.00;6215686;28;20241;-54
2021/03/04 10:43:02;;;;;;;8.67;4.43;;;;;;;8.08;55.65;101770.09;6211837;28;20229;-58
2021/03/04 10:46:23;;;;;;;9.87;4.10;;;;;;;7.99;56.27;101770.81;6211293;28;20658;-54
2021/03/04 10:49:43;;;;;;;8.40;3.90;;;;;;;8.08;56.04;101778.78;6213592;28;20229;-57
2021/03/04 10:53:05;;;;;;;9.40;3.57;;;;;;;7.89;56.45;101787.09;6192912;28;20217;-56
2021/03/04 10:56:26;;;;;;;11.23;3.80;;;;;;;7.78;57.01;101786.00;6214228;28;20233;-59
2021/03/04 10:59:47;;;;;;;7.93;3.77;;;;;;;7.53;58.17;101771.72;6215192;28;20331;-55
2021/03/04 11:03:07;;;;;;;5.33;2.80;;;;;;;7.81;57.27;101770.50;6212538;28;20232;-59
2021/03/04 11:06:28;;;;;;;5.30;3.30;;;;;;;8.02;56.39;101778.63;6205906;28;20229;-55
2021/03/04 11:09:51;;;;;;;5.83;3.10;;;;;;;7.91;57.12;101768.94;6200895;28;20229;-58
2021/03/04 11:13:14;;;;;;;7.87;3.87;;;;;;;7.79;56.91;101765.31;6189424;28;20255;-57
2021/03/04 11:16:35;;;;;;;11.63;5.47;;;;;;;8.25;55.89;101775.56;6194605;28;20237;-57
2021/03/04 11:19:55;;;;;;;9.60;4.53;;;;;;;7.99;56.52;101772.56;6209177;28;20248;-58
2021/03/04 11:23:16;;;;;;;10.27;3.77;;;;;;;8.04;56.60;101768.28;6211706;28;20233;-54
2021/03/04 11:26:38;;;;;;;10.60;3.77;;;;;;;8.23;56.23;101754.75;6217066;28;20233;-56
2021/03/04 11:29:58;;;;;;;7.97;4.00;;;;;;;8.53;55.19;101763.91;6210306;28;20229;-57
2021/03/04 11:33:20;;;;;;;7.30;3.00;;;;;;;8.07;55.33;101765.75;6188322;28;20221;-56
2021/03/04 11:36:41;;;;;;;8.33;4.17;;;;;;;8.55;54.43;101758.72;6205120;28;20558;-58
2021/03/04 11:40:02;;;;;;;7.80;4.43;;;;;;;8.43;54.32;101743.84;6202299;28;20256;-57
2021/03/04 11:43:23;;;;;;;12.63;4.27;;;;;;;8.28;54.72;101749.66;6197073;28;20226;-58
2021/03/04 11:46:44;;;;;;;8.27;4.60;;;;;;;8.40;54.86;101749.84;6207550;28;20661;-57
2021/03/04 11:50:05;;;;;;;7.50;3.07;;;;;;;8.42;54.44;101736.94;6213215;28;20228;-57
2021/03/04 11:53:26;;;;;;;11.03;4.30;;;;;;;8.49;54.24;101733.53;6209943;28;20229;-53
2021/03/04 11:56:46;;;;;;;13.33;4.63;;;;;;;8.46;53.76;101729.19;6213883;28;20221;-54
2021/03/04 12:00:09;;;;;;;11.07;5.50;;;;;;;8.87;55.12;101725.41;6210260;28;20233;-58
2021/03/04 12:03:30;;;;;;;10.77;5.13;;;;;;;9.09;55.50;101726.53;6206399;28;20690;-54
2021/03/04 12:06:51;;;;;;;11.07;5.10;;;;;;;9.31;55.14;101727.66;6192728;28;20237;-56
2021/03/04 12:10:12;;;;;;;8.77;4.00;;;;;;;9.57;52.32;101722.69;6214937;28;20229;-57
2021/03/04 12:13:34;;;;;;;14.70;4.40;;;;;;;9.43;54.18;101734.69;6189254;28;20226;-57
2021/03/04 12:16:55;;;;;;;7.27;3.57;;;;;;;9.44;54.65;101718.22;6206987;28;20310;-55
2021/03/04 12:20:16;;;;;;;7.93;4.40;;;;;;;9.24;51.63;101724.09;6204099;28;20862;-58
2021/03/04 12:23:36;;;;;;;8.67;3.87;;;;;;;8.67;51.95;101723.44;6212239;28;20256;-55
2021/03/04 12:26:57;;;;;;;5.80;3.83;;;;;;;8.71;52.82;101734.72;6209747;28;21907;-56
2021/03/04 12:30:19;;;;;;;12.47;6.07;;;;;;;9.05;52.28;101730.84;6202903;28;20228;-56
2021/03/04 12:33:40;;;;;;;12.97;5.07;;;;;;;8.76;52.36;101733.06;6192893;28;20237;-53
2021/03/04 12:37:00;;;;;;;7.23;3.40;;;;;;;8.90;52.03;101725.47;6199044;28;20316;-56
2021/03/04 12:40:21;;;;;;;10.87;5.33;;;;;;;9.35;51.13;101724.22;6212134;28;20275;-55
2021/03/04 12:43:41;;;;;;;4.40;4.00;;;;;;;9.21;50.36;101721.47;6198746;28;20228;-56
2021/03/04 12:47:02;;;;;;;8.87;3.67;;;;;;;8.91;51.89;101723.72;6212838;28;20720;-57
2021/03/04 12:50:23;;;;;;;10.10;5.03;;;;;;;8.86;51.92;101727.13;6207763;28;20252;-55
2021/03/04 12:53:43;;;;;;;9.43;4.67;;;;;;;9.18;50.99;101718.84;6211224;28;20298;-56
2021/03/04 12:57:05;;;;;;;8.87;5.33;;;;;;;8.99;51.84;101725.53;6188444;28;20620;-53
2021/03/04 13:00:26;;;;;;;11.30;7.07;;;;;;;8.99;51.93;101724.69;6194988;28;20618;-57
2021/03/04 13:03:46;;;;;;;9.10;5.23;;;;;;;8.89;52.52;101718.50;6208119;28;20320;-56
2021/03/04 13:07:08;;;;;;;10.80;6.83;;;;;;;9.27;51.30;101710.28;6188959;28;20649;-56
2021/03/04 13:10:28;;;;;;;9.00;4.90;;;;;;;9.12;51.72;101716.19;6204204;28;20229;-56
2021/03/04 13:13:49;;;;;;;6.63;5.00;;;;;;;9.38;51.16;101712.97;6174489;28;20230;-56
2021/03/04 13:17:09;;;;;;;8.13;4.90;;;;;;;9.53;50.97;101718.31;6200315;28;20718;-56
2021/03/04 13:20:29;;;;;;;8.87;5.47;;;;;;;9.42;50.94;101705.25;6179198;28;20311;-57
2021/03/04 13:23:51;;;;;;;6.80;4.60;;;;;;;9.55;50.51;101710.53;6203237;28;20222;-56
2021/03/04 13:27:12;;;;;;;7.03;5.40;;;;;;;9.57;50.09;101701.91;6199615;28;20568;-53
2021/03/04 13:30:33;;;;;;;13.30;6.83;;;;;;;9.66;50.09;101708.91;6210718;28;20233;-56
2021/03/04 13:33:53;;;;;;;10.30;7.47;;;;;;;9.75;51.55;101709.00;6189257;28;20230;-55
2021/03/04 13:37:16;;;;;;;11.03;7.20;;;;;;;9.65;52.38;101708.06;6183348;28;21999;-59
2021/03/04 13:40:38;;;;;;;7.37;5.77;;;;;;;9.79;51.94;101715.97;6190241;28;20316;-55
2021/03/04 13:43:59;;;;;;;10.90;6.93;;;;;;;9.59;51.30;101715.78;6212923;28;20229;-55
2021/03/04 13:47:21;;;;;;;6.67;5.77;;;;;;;9.61;50.43;101715.81;6211591;28;20244;-57
2021/03/04 13:50:41;;;;;;;13.20;6.37;;;;;;;9.50;50.48;101720.03;6212173;28;20615;-56
2021/03/04 13:54:02;;;;;;;10.20;5.77;;;;;;;9.28;50.92;101717.22;6212062;28;20304;-59
2021/03/04 13:57:24;;;;;;;9.33;5.37;;;;;;;9.07;50.99;101716.13;6217775;28;20229;-57
2021/03/04 14:00:44;;;;;;;8.40;4.80;;;;;;;9.21;50.88;101718.88;6213663;28;20229;-55
2021/03/04 14:04:05;;;;;;;8.10;5.50;;;;;;;9.20;50.67;101719.72;6199892;28;20233;-57
2021/03/04 14:07:25;;;;;;;7.50;4.77;;;;;;;9.37;50.60;101722.50;6210735;28;20237;-58
2021/03/04 14:10:46;;;;;;;8.13;5.30;;;;;;;9.37;50.13;101721.66;6218213;28;20229;-56
2021/03/04 14:14:07;;;;;;;6.33;4.57;;;;;;;9.44;50.19;101713.94;6212466;28;20757;-59
2021/03/04 14:17:28;;;;;;;5.83;4.50;;;;;;;9.55;49.58;101711.41;6216925;28;20497;-58
2021/03/04 14:20:48;;;;;;;8.20;5.07;;;;;;;9.43;50.02;101714.78;6210373;28;20213;-57
2021/03/04 14:24:09;;;;;;;14.13;5.93;;;;;;;9.34;50.14;101703.41;6214433;28;20616;-57
2021/03/04 14:27:29;;;;;;;11.17;5.80;;;;;;;9.41;49.90;101710.41;6215933;28;20674;-59
2021/03/04 14:30:51;;;;;;;12.87;5.30;;;;;;;9.50;49.72;101707.03;6203876;28;20236;-58
2021/03/04 14:34:12;;;;;;;9.17;5.00;;;;;;;9.51;50.25;101701.84;6194542;28;20233;-58
2021/03/04 14:37:33;;;;;;;12.07;5.20;;;;;;;9.55;49.89;101695.81;6206737;28;21988;-54
2021/03/04 14:40:54;;;;;;;8.93;4.17;;;;;;;9.31;50.44;101701.66;6189540;28;20218;-56
2021/03/04 14:44:14;;;;;;;11.83;5.57;;;;;;;9.56;50.30;101700.16;6214577;28;20229;-57
2021/03/04 14:47:35;;;;;;;7.73;4.40;;;;;;;9.43;50.49;101695.69;6198907;28;20234;-56
2021/03/04 14:50:56;;;;;;;10.87;5.17;;;;;;;9.18;50.83;101698.03;6215597;28;20237;-53
2021/03/04 14:54:17;;;;;;;9.30;4.67;;;;;;;9.31;51.05;101698.19;6214095;28;20240;-58
2021/03/04 14:57:37;;;;;;;6.47;4.37;;;;;;;9.40;50.74;101700.84;6212037;28;20226;-56
2021/03/04 15:00:58;;;;;;;8.60;5.03;;;;;;;9.11;51.65;101693.66;6212055;28;20225;-55
2021/03/04 15:04:19;;;;;;;9.33;4.80;;;;;;;9.24;51.09;101695.50;6208842;28;20339;-55
2021/03/04 15:07:40;;;;;;;14.30;4.60;;;;;;;9.22;51.14;101694.63;6208837;28;20362;-56
2021/03/04 15:11:01;;;;;;;12.13;6.83;;;;;;;9.06;51.92;101698.78;6196945;28;20237;-58
2021/03/04 15:14:21;;;;;;;8.23;5.53;;;;;;;9.13;57.67;101710.13;6199348;28;20230;-56
2021/03/04 15:17:42;;;;;;;14.03;6.87;;;;;;;9.33;54.33;101705.13;6203768;28;20327;-57
2021/03/04 15:21:03;;;;;;;12.70;6.53;;;;;;;8.80;54.30;101718.38;6208490;28;20232;-54
2021/03/04 15:24:24;;;;;;;13.87;10.27;;;;;;;7.99;56.77;101737.09;6193309;28;20325;-54
2021/03/04 15:27:44;;;;;;;19.37;11.93;;;;;;;7.71;57.49;101729.69;6194283;28;20237;-57
2021/03/04 15:31:07;;;;;;;18.10;11.23;;;;;;;7.42;58.47;101732.63;6183200;28;20226;-58
2021/03/04 15:34:28;;;;;;;14.43;11.77;;;;;;;7.35;58.56;101734.25;6186587;28;20237;-59
2021/03/04 15:37:52;;;;;;;14.10;11.90;;;;;;;7.21;58.45;101746.94;6211955;28;20241;-55
2021/03/04 15:41:15;;;;;;;14.50;11.83;;;;;;;7.29;58.08;101741.91;6184420;28;20230;-56
2021/03/04 15:44:36;;;;;;;11.27;10.07;;;;;;;7.34;57.95;101750.63;6193660;28;20328;-57